createdAt,value
2022-12-18T00:00:11.456Z,80.39
2022-12-18T00:02:42.243Z,80.42
2022-12-18T00:05:10.830Z,80.92
2022-12-18T00:07:39.165Z,80.40
2022-12-18T00:10:08.485Z,80.71
2022-12-18T00:12:38.710Z,77.76
2022-12-18T00:15:07.573Z,78.60
2022-12-18T00:17:37.022Z,78.62
2022-12-18T00:20:05.512Z,78.78
2022-12-18T00:22:33.432Z,80.00
2022-12-18T00:25:03.430Z,79.51
2022-12-18T00:27:33.619Z,79.02
2022-12-18T00:30:01.481Z,79.18
2022-12-18T00:32:29.394Z,80.00
2022-12-18T00:35:00.694Z,80.79
2022-12-18T00:37:28.723Z,81.12
2022-12-18T00:39:59.679Z,81.09
2022-12-18T00:42:45.280Z,80.66
2022-12-18T00:45:13.474Z,80.31
2022-12-18T00:47:41.895Z,79.73
2022-12-18T00:50:13.655Z,79.94
2022-12-18T00:52:43.590Z,80.01
2022-12-18T00:55:12.245Z,79.26
2022-12-18T00:57:40.280Z,79.00
2022-12-18T01:00:12.262Z,79.34
2022-12-18T01:02:40.516Z,80.24
2022-12-18T01:05:12.077Z,80.52
2022-12-18T01:07:43.830Z,80.79
2022-12-18T01:10:13.571Z,80.13
2022-12-18T01:12:41.584Z,79.48
2022-12-18T01:15:11.716Z,79.54
2022-12-18T01:17:42.080Z,79.51
2022-12-18T01:20:12.852Z,79.53
2022-12-18T01:22:40.791Z,79.48
2022-12-18T01:25:10.893Z,80.30
2022-12-18T01:27:38.760Z,81.48
2022-12-18T01:30:10.168Z,80.88
2022-12-18T01:32:38.167Z,78.83
2022-12-18T01:35:07.451Z,78.47
2022-12-18T01:37:35.561Z,79.96
2022-12-18T01:40:03.378Z,79.41
2022-12-18T01:42:32.656Z,80.73
2022-12-18T01:45:04.225Z,80.73
2022-12-18T01:47:38.661Z,81.26
2022-12-18T01:50:11.138Z,82.41
2022-12-18T01:52:43.257Z,81.60
2022-12-18T01:55:13.115Z,81.30
2022-12-18T01:57:42.995Z,81.13
2022-12-18T02:00:16.298Z,81.17
2022-12-18T02:02:46.096Z,80.62
2022-12-18T02:05:17.682Z,80.28
2022-12-18T02:07:57.498Z,81.06
2022-12-18T02:10:33.730Z,80.07
2022-12-18T02:13:14.019Z,80.62
2022-12-18T02:15:49.107Z,81.41
2022-12-18T02:18:22.770Z,81.02
2022-12-18T02:21:00.882Z,82.05
2022-12-18T02:23:47.724Z,81.27
2022-12-18T02:26:21.891Z,81.60
2022-12-18T02:28:56.790Z,80.58
2022-12-18T02:31:29.287Z,82.71
2022-12-18T02:34:00.714Z,83.09
2022-12-18T02:36:30.937Z,83.32
2022-12-18T02:39:01.196Z,83.07
2022-12-18T02:41:31.995Z,82.83
2022-12-18T02:44:04.060Z,82.29
2022-12-18T02:46:38.626Z,82.26
2022-12-18T02:49:24.103Z,81.72
2022-12-18T02:51:57.701Z,81.78
2022-12-18T02:54:57.905Z,81.41
2022-12-18T02:57:35.924Z,81.28
2022-12-18T03:00:10.787Z,81.70
2022-12-18T03:02:43.858Z,81.73
2022-12-18T03:05:16.193Z,81.88
2022-12-18T03:07:53.700Z,81.21
2022-12-18T03:10:29.590Z,80.99
2022-12-18T03:13:04.175Z,81.01
2022-12-18T03:15:37.783Z,81.02
2022-12-18T03:18:15.331Z,81.50
2022-12-18T03:20:45.534Z,81.69
2022-12-18T03:23:22.297Z,82.05
2022-12-18T03:25:56.422Z,82.48
2022-12-18T03:28:33.625Z,81.40
2022-12-18T03:31:07.754Z,82.00
2022-12-18T03:33:42.176Z,81.68
2022-12-18T03:36:10.710Z,81.93
2022-12-18T03:38:40.035Z,82.36
2022-12-18T03:41:21.765Z,82.27
2022-12-18T03:44:18.383Z,82.27
2022-12-18T03:46:55.739Z,82.35
2022-12-18T03:49:30.144Z,82.51
2022-12-18T03:52:05.706Z,82.31
2022-12-18T03:54:36.463Z,82.66
2022-12-18T03:57:15.798Z,83.16
2022-12-18T03:59:46.913Z,83.14
2022-12-18T04:02:19.005Z,82.71
2022-12-18T04:04:50.356Z,82.42
2022-12-18T04:07:20.429Z,82.21
2022-12-18T04:09:50.494Z,81.83
2022-12-18T04:12:19.711Z,81.35
2022-12-18T04:14:50.896Z,81.50
2022-12-18T04:17:18.867Z,81.80
2022-12-18T04:19:46.836Z,81.51
2022-12-18T04:22:14.967Z,81.53
2022-12-18T04:24:47.449Z,81.31
2022-12-18T04:27:23.923Z,81.56
2022-12-18T04:29:55.798Z,81.34
2022-12-18T04:32:23.896Z,80.59
2022-12-18T04:34:51.891Z,80.18
2022-12-18T04:37:19.896Z,80.52
2022-12-18T04:39:50.329Z,80.68
2022-12-18T04:42:25.846Z,81.04
2022-12-18T04:44:55.001Z,81.21
2022-12-18T04:47:22.830Z,80.47
2022-12-18T04:49:57.953Z,82.37
2022-12-18T04:52:25.882Z,82.22
2022-12-18T04:54:53.780Z,82.60
2022-12-18T04:57:21.682Z,82.45
2022-12-18T04:59:49.488Z,81.99
2022-12-18T05:02:20.883Z,82.34
2022-12-18T05:04:48.847Z,81.96
2022-12-18T05:07:16.946Z,81.66
2022-12-18T05:09:44.849Z,81.62
2022-12-18T05:12:13.123Z,81.56
2022-12-18T05:14:40.930Z,81.13
2022-12-18T05:17:08.855Z,81.68
2022-12-18T05:19:38.020Z,81.17
2022-12-18T05:22:08.649Z,81.00
2022-12-18T05:24:36.563Z,79.77
2022-12-18T05:27:04.675Z,79.08
2022-12-18T05:29:32.550Z,79.18
2022-12-18T05:32:00.527Z,79.50
2022-12-18T05:34:28.485Z,79.19
2022-12-18T05:36:57.757Z,78.78
2022-12-18T05:39:25.587Z,78.80
2022-12-18T05:41:53.547Z,79.23
2022-12-18T05:44:23.465Z,79.89
2022-12-18T05:46:51.343Z,78.55
2022-12-18T05:49:19.255Z,79.19
2022-12-18T05:51:47.188Z,80.28
2022-12-18T05:54:16.371Z,79.56
2022-12-18T05:56:48.485Z,79.69
2022-12-18T05:59:16.714Z,78.75
2022-12-18T06:01:45.169Z,78.89
2022-12-18T06:04:13.361Z,78.46
2022-12-18T06:06:43.497Z,78.68
2022-12-18T06:09:11.534Z,77.38
2022-12-18T06:11:40.831Z,77.69
2022-12-18T06:14:09.265Z,77.36
2022-12-18T06:16:37.205Z,77.13
2022-12-18T06:19:07.491Z,77.54
2022-12-18T06:21:35.914Z,77.87
2022-12-18T06:24:04.211Z,78.84
2022-12-18T06:26:32.246Z,77.63
2022-12-18T06:29:01.488Z,78.49
2022-12-18T06:31:29.515Z,78.19
2022-12-18T06:33:58.183Z,78.04
2022-12-18T06:36:26.155Z,78.39
2022-12-18T06:38:56.609Z,78.02
2022-12-18T06:41:24.518Z,77.70
2022-12-18T06:43:59.551Z,78.25
2022-12-18T06:46:29.278Z,78.51
2022-12-18T06:48:57.176Z,77.46
2022-12-18T06:51:25.827Z,78.02
2022-12-18T06:53:53.698Z,76.30
2022-12-18T06:56:21.522Z,77.18
2022-12-18T06:58:53.019Z,77.35
2022-12-18T07:01:21.071Z,77.27
2022-12-18T07:03:54.219Z,77.39
2022-12-18T07:06:23.758Z,76.00
2022-12-18T07:08:56.010Z,75.79
2022-12-18T07:11:24.186Z,76.15
2022-12-18T07:13:55.364Z,76.59
2022-12-18T07:16:25.585Z,76.33
2022-12-18T07:18:57.068Z,75.36
2022-12-18T07:21:26.280Z,75.40
2022-12-18T07:23:54.252Z,75.52
2022-12-18T07:26:23.450Z,75.47
2022-12-18T07:28:51.828Z,74.73
2022-12-18T07:31:22.921Z,75.21
2022-12-18T07:33:51.900Z,76.84
2022-12-18T07:36:25.622Z,78.16
2022-12-18T07:38:57.001Z,77.95
2022-12-18T07:41:25.008Z,77.89
2022-12-18T07:43:52.856Z,77.76
2022-12-18T07:46:20.875Z,78.87
2022-12-18T07:48:50.097Z,78.28
2022-12-18T07:51:19.234Z,76.99
2022-12-18T07:53:52.122Z,76.77
2022-12-18T07:56:27.830Z,74.90
2022-12-18T07:58:59.259Z,75.62
2022-12-18T08:01:31.959Z,76.19
2022-12-18T08:04:00.140Z,76.34
2022-12-18T08:06:27.970Z,76.50
2022-12-18T08:08:58.217Z,75.42
2022-12-18T08:11:27.751Z,74.68
2022-12-18T08:13:55.880Z,73.40
2022-12-18T08:16:26.125Z,73.39
2022-12-18T08:18:54.718Z,73.93
2022-12-18T08:21:24.794Z,73.76
2022-12-18T08:23:53.587Z,74.81
2022-12-18T08:26:24.015Z,74.26
2022-12-18T08:28:52.648Z,75.06
2022-12-18T08:31:21.086Z,74.09
2022-12-18T08:33:50.703Z,72.95
2022-12-18T08:36:21.518Z,71.15
2022-12-18T08:38:51.952Z,72.07
2022-12-18T08:41:20.366Z,71.65
2022-12-18T08:44:07.389Z,70.88
2022-12-18T08:46:37.868Z,70.67
2022-12-18T08:49:06.576Z,72.69
2022-12-18T08:51:37.061Z,72.15
2022-12-18T08:54:06.335Z,71.71
2022-12-18T08:56:35.043Z,72.00
2022-12-18T08:59:05.351Z,71.60
2022-12-18T09:01:33.393Z,72.56
2022-12-18T09:04:02.251Z,70.95
2022-12-18T09:06:30.146Z,69.82
2022-12-18T09:08:59.157Z,70.94
2022-12-18T09:11:29.442Z,71.39
2022-12-18T09:13:58.174Z,71.73
2022-12-18T09:16:32.288Z,72.19
2022-12-18T09:19:01.471Z,71.37
2022-12-18T09:21:31.629Z,72.29
2022-12-18T09:24:01.207Z,72.06
2022-12-18T09:26:29.393Z,72.67
2022-12-18T09:28:57.251Z,73.37
2022-12-18T09:31:27.101Z,72.35
2022-12-18T09:33:57.332Z,72.70
2022-12-18T09:36:25.303Z,72.41
2022-12-18T09:38:54.160Z,72.23
2022-12-18T09:41:41.517Z,72.43
2022-12-18T09:44:21.589Z,72.66
2022-12-18T09:47:06.908Z,71.80
2022-12-18T09:49:38.900Z,71.86
2022-12-18T09:52:13.595Z,71.74
2022-12-18T09:54:46.589Z,72.00
2022-12-18T09:57:18.309Z,71.86
2022-12-18T09:59:49.972Z,72.03
2022-12-18T10:02:22.497Z,70.75
2022-12-18T10:05:04.861Z,71.56
2022-12-18T10:07:46.044Z,70.51
2022-12-18T10:10:33.850Z,71.47
2022-12-18T10:13:11.963Z,71.27
2022-12-18T10:15:51.222Z,71.14
2022-12-18T10:18:35.768Z,72.47
2022-12-18T10:21:12.048Z,70.96
2022-12-18T10:23:48.949Z,70.62
2022-12-18T10:26:17.096Z,70.52
2022-12-18T10:28:45.891Z,69.72
2022-12-18T10:31:18.500Z,70.28
2022-12-18T10:33:47.938Z,70.37
2022-12-18T10:36:15.962Z,69.46
2022-12-18T10:38:44.634Z,69.37
2022-12-18T10:41:30.705Z,70.41
2022-12-18T10:44:17.904Z,70.80
2022-12-18T10:46:55.484Z,70.37
2022-12-18T10:49:27.322Z,69.96
2022-12-18T10:52:09.286Z,71.63
2022-12-18T10:54:38.938Z,69.62
2022-12-18T10:57:17.920Z,70.15
2022-12-18T10:59:53.673Z,69.30
2022-12-18T11:02:30.247Z,70.30
2022-12-18T11:04:59.598Z,68.25
2022-12-18T11:07:27.606Z,68.51
2022-12-18T11:10:05.398Z,67.69
2022-12-18T11:12:33.424Z,67.75
2022-12-18T11:15:02.128Z,67.00
2022-12-18T11:17:33.870Z,65.44
2022-12-18T11:20:06.679Z,64.63
2022-12-18T11:22:37.161Z,65.22
2022-12-18T11:25:32.654Z,65.57
2022-12-18T11:27:58.623Z,65.06
2022-12-18T11:30:28.969Z,64.75
2022-12-18T11:33:02.445Z,64.88
2022-12-18T11:36:32.155Z,63.72
2022-12-18T11:39:05.479Z,63.61
2022-12-18T11:42:00.510Z,62.91
2022-12-18T11:44:33.884Z,63.07
2022-12-18T11:47:10.715Z,62.53
2022-12-18T11:49:43.427Z,63.32
2022-12-18T11:52:18.537Z,62.88
2022-12-18T11:54:48.041Z,62.55
2022-12-18T11:57:30.966Z,62.16
2022-12-18T12:00:04.789Z,62.33
2022-12-18T12:03:08.715Z,62.65
2022-12-18T12:05:53.559Z,61.89
2022-12-18T12:08:32.775Z,63.26
2022-12-18T12:11:11.049Z,62.66
2022-12-18T12:13:49.821Z,61.39
2022-12-18T12:16:23.263Z,63.94
2022-12-18T12:19:08.014Z,62.05
2022-12-18T12:21:41.465Z,62.58
2022-12-18T12:24:28.261Z,61.73
2022-12-18T12:27:08.936Z,62.56
2022-12-18T12:29:49.534Z,61.36
2022-12-18T12:32:32.162Z,62.99
2022-12-18T12:35:17.581Z,62.46
2022-12-18T12:37:53.034Z,63.17
2022-12-18T12:40:51.216Z,64.14
2022-12-18T12:43:25.836Z,62.24
2022-12-18T12:45:57.518Z,63.50
2022-12-18T12:48:36.097Z,63.30
2022-12-18T12:51:10.387Z,64.31
2022-12-18T12:53:40.459Z,63.64
2022-12-18T12:56:13.222Z,63.08
2022-12-18T12:58:51.689Z,64.45
2022-12-18T13:01:29.909Z,64.06
2022-12-18T13:04:08.846Z,63.24
2022-12-18T13:06:45.238Z,63.17
2022-12-18T13:09:14.320Z,63.47
2022-12-18T13:12:01.559Z,62.75
2022-12-18T13:14:34.762Z,62.52
2022-12-18T13:17:32.881Z,62.77
2022-12-18T13:20:10.445Z,63.02
2022-12-18T13:22:40.298Z,62.58
2022-12-18T13:25:34.728Z,62.71
2022-12-18T13:28:11.178Z,61.76
2022-12-18T13:30:57.736Z,62.97
2022-12-18T13:34:23.898Z,63.60
2022-12-18T13:36:36.376Z,63.12
2022-12-18T13:39:28.908Z,64.26
2022-12-18T13:42:49.348Z,62.70
2022-12-18T13:45:49.850Z,64.01
2022-12-18T13:48:25.353Z,63.61
2022-12-18T13:51:01.111Z,64.50
2022-12-18T13:53:34.773Z,63.95
2022-12-18T13:56:03.965Z,64.77
2022-12-18T13:58:31.887Z,64.58
2022-12-18T14:01:00.311Z,63.97
2022-12-18T14:03:31.476Z,65.81
2022-12-18T14:06:07.749Z,65.23
2022-12-18T14:08:40.877Z,66.18
2022-12-18T14:11:19.923Z,66.11
2022-12-18T14:13:49.745Z,66.58
2022-12-18T14:16:19.671Z,66.41
2022-12-18T14:18:55.356Z,66.81
2022-12-18T14:21:28.877Z,66.61
2022-12-18T14:24:17.555Z,67.76
2022-12-18T14:26:50.332Z,67.25
2022-12-18T14:29:27.491Z,67.19
2022-12-18T14:32:16.962Z,67.02
2022-12-18T14:34:48.428Z,67.24
2022-12-18T14:37:19.117Z,67.59
2022-12-18T14:39:59.035Z,68.47
2022-12-18T14:42:29.279Z,68.19
2022-12-18T14:45:41.020Z,68.01
2022-12-18T14:48:15.426Z,68.84
2022-12-18T14:50:56.820Z,70.29
2022-12-18T14:53:30.200Z,70.53
2022-12-18T14:55:58.212Z,70.46
2022-12-18T14:58:26.205Z,69.82
2022-12-18T15:00:55.471Z,70.26
2022-12-18T15:03:24.228Z,71.05
2022-12-18T15:05:54.689Z,70.89
2022-12-18T15:08:36.837Z,70.98
2022-12-18T15:11:09.013Z,70.63
2022-12-18T15:13:41.347Z,71.04
2022-12-18T15:16:14.264Z,70.75
2022-12-18T15:18:46.132Z,70.89
2022-12-18T15:21:21.153Z,71.60
2022-12-18T15:23:51.596Z,72.29
2022-12-18T15:26:21.684Z,71.98
2022-12-18T15:28:51.738Z,72.49
2022-12-18T15:31:26.188Z,72.88
2022-12-18T15:34:14.356Z,72.99
2022-12-18T15:36:43.596Z,72.70
2022-12-18T15:39:14.608Z,72.99
2022-12-18T15:42:02.616Z,73.22
2022-12-18T15:44:29.476Z,73.47
2022-12-18T15:46:58.930Z,73.47
2022-12-18T15:49:28.909Z,73.97
2022-12-18T15:52:00.700Z,73.97
2022-12-18T15:54:46.295Z,73.84
2022-12-18T15:57:26.583Z,73.93
2022-12-18T15:59:56.730Z,73.96
2022-12-18T16:02:24.816Z,74.64
2022-12-18T16:04:54.888Z,74.03
2022-12-18T16:07:25.627Z,75.19
2022-12-18T16:09:55.473Z,75.65
2022-12-18T16:12:26.338Z,75.31
2022-12-18T16:14:54.287Z,75.71
2022-12-18T16:17:24.372Z,75.95
2022-12-18T16:19:54.593Z,76.07
2022-12-18T16:22:27.689Z,75.91
2022-12-18T16:24:57.671Z,75.57
2022-12-18T16:27:26.645Z,76.17
2022-12-18T16:29:56.983Z,76.90
2022-12-18T16:32:24.995Z,76.80
2022-12-18T16:34:52.929Z,77.10
2022-12-18T16:37:20.775Z,77.70
2022-12-18T16:39:50.048Z,78.17
2022-12-18T16:42:20.162Z,78.87
2022-12-18T16:44:49.695Z,78.38
2022-12-18T16:47:18.377Z,77.38
2022-12-18T16:49:46.680Z,77.38
2022-12-18T16:52:15.455Z,77.08
2022-12-18T16:54:43.354Z,77.09
2022-12-18T16:57:14.724Z,77.23
2022-12-18T16:59:42.650Z,76.68
2022-12-18T17:02:15.639Z,76.89
2022-12-18T17:04:45.677Z,77.58
2022-12-18T17:07:14.511Z,77.33
2022-12-18T17:09:42.600Z,78.22
2022-12-18T17:12:12.156Z,78.06
2022-12-18T17:14:40.456Z,78.42
2022-12-18T17:17:21.026Z,78.24
2022-12-18T17:19:49.571Z,78.61
2022-12-18T17:22:17.589Z,78.66
2022-12-18T17:24:45.682Z,79.25
2022-12-18T17:27:14.957Z,79.21
2022-12-18T17:29:47.288Z,79.56
2022-12-18T17:32:16.298Z,79.70
2022-12-18T17:34:44.558Z,79.81
2022-12-18T17:37:12.518Z,79.11
2022-12-18T17:39:42.032Z,79.56
2022-12-18T17:42:11.503Z,79.54
2022-12-18T17:44:45.459Z,79.23
2022-12-18T17:47:14.101Z,80.12
2022-12-18T17:49:42.105Z,79.67
2022-12-18T17:52:10.211Z,79.81
2022-12-18T17:54:41.863Z,79.38
2022-12-18T17:57:10.407Z,79.85
2022-12-18T17:59:40.934Z,79.83
2022-12-18T18:02:12.518Z,80.51
2022-12-18T18:04:40.745Z,79.80
2022-12-18T18:07:08.707Z,80.03
2022-12-18T18:09:36.660Z,80.40
2022-12-18T18:12:33.783Z,80.06
2022-12-18T18:15:04.260Z,79.31
2022-12-18T18:17:33.689Z,79.77
2022-12-18T18:20:01.545Z,79.90
2022-12-18T18:22:29.803Z,80.09
2022-12-18T18:24:58.158Z,80.45
2022-12-18T18:27:26.143Z,79.38
2022-12-18T18:29:54.726Z,80.06
2022-12-18T18:32:22.653Z,79.93
2022-12-18T18:34:55.064Z,79.23
2022-12-18T18:37:23.228Z,79.69
2022-12-18T18:39:51.271Z,79.69
2022-12-18T18:42:19.092Z,79.91
2022-12-18T18:44:49.090Z,79.66
2022-12-18T18:47:17.160Z,79.90
2022-12-18T18:49:45.105Z,80.09
2022-12-18T18:52:14.493Z,80.18
2022-12-18T18:55:03.798Z,79.28
2022-12-18T18:57:30.889Z,79.18
2022-12-18T18:59:58.720Z,79.04
2022-12-18T19:02:26.806Z,79.24
2022-12-18T19:04:54.789Z,79.46
2022-12-18T19:07:30.755Z,79.36
2022-12-18T19:10:04.035Z,79.03
2022-12-18T19:12:50.887Z,78.36
2022-12-18T19:15:18.813Z,78.65
2022-12-18T19:17:47.471Z,79.15
2022-12-18T19:20:16.118Z,79.26
2022-12-18T19:22:48.590Z,79.02
2022-12-18T19:25:40.043Z,78.31
2022-12-18T19:28:15.357Z,78.23
2022-12-18T19:30:57.318Z,77.89
2022-12-18T19:33:46.121Z,78.70
2022-12-18T19:36:20.194Z,78.20
2022-12-18T19:38:50.984Z,78.58
2022-12-18T19:41:20.603Z,78.81
2022-12-18T19:43:49.954Z,78.63
2022-12-18T19:46:19.348Z,78.24
2022-12-18T19:48:48.827Z,78.21
2022-12-18T19:51:19.082Z,78.35
2022-12-18T19:53:47.973Z,78.27
2022-12-18T19:56:19.388Z,78.52
2022-12-18T19:58:47.889Z,77.88
2022-12-18T20:01:18.060Z,77.48
2022-12-18T20:03:51.700Z,77.65
2022-12-18T20:06:28.000Z,77.13
2022-12-18T20:09:00.267Z,77.50
2022-12-18T20:11:30.680Z,78.34
2022-12-18T20:13:59.487Z,78.03
2022-12-18T20:16:27.797Z,77.68
2022-12-18T20:18:56.031Z,77.60
2022-12-18T20:21:25.196Z,77.94
2022-12-18T20:23:53.190Z,77.90
2022-12-18T20:26:21.097Z,77.29
2022-12-18T20:28:50.309Z,77.40
2022-12-18T20:31:20.655Z,77.80
2022-12-18T20:33:51.053Z,77.09
2022-12-18T20:36:23.564Z,77.05
2022-12-18T20:38:57.209Z,77.41
2022-12-18T20:41:35.020Z,76.36
2022-12-18T20:44:10.464Z,76.96
2022-12-18T20:46:50.620Z,76.34
2022-12-18T20:49:18.566Z,76.51
2022-12-18T20:51:46.515Z,77.33
2022-12-18T20:54:14.352Z,77.39
2022-12-18T20:56:42.192Z,77.19
2022-12-18T20:59:11.748Z,77.22
2022-12-18T21:01:39.918Z,77.47
2022-12-18T21:04:15.353Z,77.17
2022-12-18T21:06:49.423Z,77.71
2022-12-18T21:09:23.558Z,77.14
2022-12-18T21:12:08.857Z,76.54
2022-12-18T21:14:41.240Z,76.74
2022-12-18T21:17:09.246Z,76.97
2022-12-18T21:19:37.791Z,76.58
2022-12-18T21:22:06.236Z,76.21
2022-12-18T21:24:34.097Z,77.04
2022-12-18T21:27:03.571Z,77.10
2022-12-18T21:29:31.648Z,77.64
2022-12-18T21:32:01.552Z,77.29
2022-12-18T21:34:34.221Z,77.13
2022-12-18T21:37:02.733Z,77.91
2022-12-18T21:39:31.853Z,78.05
2022-12-18T21:42:17.830Z,78.27
2022-12-18T21:44:48.944Z,78.46
2022-12-18T21:47:22.387Z,77.47
2022-12-18T21:49:53.583Z,78.19
2022-12-18T21:52:31.169Z,77.73
2022-12-18T21:55:09.550Z,77.52
2022-12-18T21:57:39.227Z,78.14
2022-12-18T22:00:19.328Z,78.06
2022-12-18T22:03:00.496Z,77.94
2022-12-18T22:05:37.420Z,77.48
2022-12-18T22:08:06.791Z,77.35
2022-12-18T22:10:34.897Z,77.81
2022-12-18T22:13:05.049Z,77.83
2022-12-18T22:15:33.314Z,77.45
2022-12-18T22:18:02.456Z,77.09
2022-12-18T22:20:30.438Z,77.69
2022-12-18T22:22:58.538Z,77.70
2022-12-18T22:25:26.941Z,78.33
2022-12-18T22:28:12.626Z,79.02
2022-12-18T22:30:40.562Z,78.35
2022-12-18T22:33:09.844Z,78.70
2022-12-18T22:35:37.692Z,79.14
2022-12-18T22:38:06.375Z,78.81
2022-12-18T22:40:37.109Z,78.57
2022-12-18T22:43:05.133Z,78.32
2022-12-18T22:45:33.075Z,79.33
2022-12-18T22:48:05.646Z,78.58
2022-12-18T22:50:34.897Z,78.58
2022-12-18T22:53:02.816Z,78.44
2022-12-18T22:55:30.865Z,77.88
2022-12-18T22:57:58.760Z,77.84
2022-12-18T23:00:26.930Z,77.47
2022-12-18T23:03:00.287Z,76.61
2022-12-18T23:05:30.558Z,76.86
2022-12-18T23:08:00.138Z,76.92
2022-12-18T23:10:28.718Z,76.27
2022-12-18T23:12:56.573Z,76.47
2022-12-18T23:15:27.961Z,76.19
2022-12-18T23:17:58.561Z,76.70
2022-12-18T23:20:27.183Z,76.33
2022-12-18T23:22:55.190Z,75.89
2022-12-18T23:25:24.813Z,76.00
2022-12-18T23:27:53.109Z,75.86
2022-12-18T23:30:20.993Z,75.69
2022-12-18T23:32:48.863Z,75.81
2022-12-18T23:35:16.986Z,75.83
2022-12-18T23:38:00.955Z,74.54
2022-12-18T23:40:30.991Z,75.39
2022-12-18T23:43:01.265Z,76.11
2022-12-18T23:45:34.169Z,75.15
2022-12-18T23:48:02.225Z,75.64
2022-12-18T23:50:32.167Z,75.29
2022-12-18T23:53:05.311Z,75.38
2022-12-18T23:55:40.418Z,75.71
2022-12-18T23:58:16.648Z,76.38
